sensor_id;sensor_type;location;lat;lon;timestamp;temperature;humidity
24408;DHT22;12542;50.924;4.516;2022-07-19T00:01:52;22.40;99.90
24408;DHT22;12542;50.924;4.516;2022-07-19T00:04:18;22.50;99.90
24408;DHT22;12542;50.924;4.516;2022-07-19T00:06:43;22.40;99.90
24408;DHT22;12542;50.924;4.516;2022-07-19T00:09:12;22.30;99.90
24408;DHT22;12542;50.924;4.516;2022-07-19T00:11:40;22.20;99.90
24408;DHT22;12542;50.924;4.516;2022-07-19T00:14:05;22.20;99.90
24408;DHT22;12542;50.924;4.516;2022-07-19T00:16:31;22.00;99.90
24408;DHT22;12542;50.924;4.516;2022-07-19T00:18:56;22.00;99.90
24408;DHT22;12542;50.924;4.516;2022-07-19T00:21:22;21.90;99.90
24408;DHT22;12542;50.924;4.516;2022-07-19T00:23:48;21.90;99.90
24408;DHT22;12542;50.924;4.516;2022-07-19T00:26:16;21.80;99.90
24408;DHT22;12542;50.924;4.516;2022-07-19T00:28:41;21.80;99.90
24408;DHT22;12542;50.924;4.516;2022-07-19T00:31:07;21.80;99.90
24408;DHT22;12542;50.924;4.516;2022-07-19T00:33:35;21.70;99.90
24408;DHT22;12542;50.924;4.516;2022-07-19T00:36:01;21.70;99.90
24408;DHT22;12542;50.924;4.516;2022-07-19T00:38:26;21.70;99.90
24408;DHT22;12542;50.924;4.516;2022-07-19T00:40:52;21.70;99.90
24408;DHT22;12542;50.924;4.516;2022-07-19T00:43:20;21.70;99.90
24408;DHT22;12542;50.924;4.516;2022-07-19T00:45:49;21.70;99.90
24408;DHT22;12542;50.924;4.516;2022-07-19T00:48:14;21.70;99.90
24408;DHT22;12542;50.924;4.516;2022-07-19T00:50:40;21.70;99.90
24408;DHT22;12542;50.924;4.516;2022-07-19T00:53:06;21.60;99.90
24408;DHT22;12542;50.924;4.516;2022-07-19T00:55:35;21.60;99.90
24408;DHT22;12542;50.924;4.516;2022-07-19T00:58:02;21.60;99.90
24408;DHT22;12542;50.924;4.516;2022-07-19T01:00:31;21.70;99.90
24408;DHT22;12542;50.924;4.516;2022-07-19T01:02:58;21.60;99.90
24408;DHT22;12542;50.924;4.516;2022-07-19T01:05:26;21.60;99.90
24408;DHT22;12542;50.924;4.516;2022-07-19T01:07:51;21.60;99.90
24408;DHT22;12542;50.924;4.516;2022-07-19T01:10:17;21.60;99.90
24408;DHT22;12542;50.924;4.516;2022-07-19T01:12:43;21.60;99.90
24408;DHT22;12542;50.924;4.516;2022-07-19T01:15:20;21.60;99.90
24408;DHT22;12542;50.924;4.516;2022-07-19T01:17:51;21.50;99.90
24408;DHT22;12542;50.924;4.516;2022-07-19T01:20:19;21.50;99.90
24408;DHT22;12542;50.924;4.516;2022-07-19T01:22:48;21.50;99.90
24408;DHT22;12542;50.924;4.516;2022-07-19T01:25:14;21.50;99.90
24408;DHT22;12542;50.924;4.516;2022-07-19T01:27:47;21.50;99.90
24408;DHT22;12542;50.924;4.516;2022-07-19T01:30:17;21.60;99.90
24408;DHT22;12542;50.924;4.516;2022-07-19T01:32:43;21.50;99.90
24408;DHT22;12542;50.924;4.516;2022-07-19T01:35:09;21.50;99.90
24408;DHT22;12542;50.924;4.516;2022-07-19T01:37:35;21.30;99.90
24408;DHT22;12542;50.924;4.516;2022-07-19T01:40:05;21.30;99.90
24408;DHT22;12542;50.924;4.516;2022-07-19T01:42:33;21.30;99.90
24408;DHT22;12542;50.924;4.516;2022-07-19T01:44:59;21.20;99.90
24408;DHT22;12542;50.924;4.516;2022-07-19T01:47:25;21.20;99.90
24408;DHT22;12542;50.924;4.516;2022-07-19T01:49:51;21.10;99.90
24408;DHT22;12542;50.924;4.516;2022-07-19T01:52:19;21.00;99.90
24408;DHT22;12542;50.924;4.516;2022-07-19T01:54:44;21.00;99.90
24408;DHT22;12542;50.924;4.516;2022-07-19T01:57:10;20.90;99.90
24408;DHT22;12542;50.924;4.516;2022-07-19T01:59:36;20.90;99.90
24408;DHT22;12542;50.924;4.516;2022-07-19T02:02:03;20.90;99.90
24408;DHT22;12542;50.924;4.516;2022-07-19T02:04:29;20.90;99.90
24408;DHT22;12542;50.924;4.516;2022-07-19T02:06:54;20.90;99.90
24408;DHT22;12542;50.924;4.516;2022-07-19T02:09:20;20.90;99.90
24408;DHT22;12542;50.924;4.516;2022-07-19T02:11:45;20.90;99.90
24408;DHT22;12542;50.924;4.516;2022-07-19T02:14:11;20.90;99.90
24408;DHT22;12542;50.924;4.516;2022-07-19T02:16:38;20.80;99.90
24408;DHT22;12542;50.924;4.516;2022-07-19T02:19:07;20.80;99.90
24408;DHT22;12542;50.924;4.516;2022-07-19T02:21:37;20.80;99.90
24408;DHT22;12542;50.924;4.516;2022-07-19T02:24:04;20.80;99.90
24408;DHT22;12542;50.924;4.516;2022-07-19T02:26:30;20.70;99.90
24408;DHT22;12542;50.924;4.516;2022-07-19T02:28:56;20.60;99.90
24408;DHT22;12542;50.924;4.516;2022-07-19T02:31:22;20.40;99.90
24408;DHT22;12542;50.924;4.516;2022-07-19T02:33:48;20.40;99.90
24408;DHT22;12542;50.924;4.516;2022-07-19T02:36:16;20.50;99.90
24408;DHT22;12542;50.924;4.516;2022-07-19T02:38:47;20.50;99.90
24408;DHT22;12542;50.924;4.516;2022-07-19T02:41:15;20.50;99.90
24408;DHT22;12542;50.924;4.516;2022-07-19T02:43:42;20.50;99.90
24408;DHT22;12542;50.924;4.516;2022-07-19T02:46:08;20.50;99.90
24408;DHT22;12542;50.924;4.516;2022-07-19T02:48:35;20.40;99.90
24408;DHT22;12542;50.924;4.516;2022-07-19T02:51:04;20.40;99.90
24408;DHT22;12542;50.924;4.516;2022-07-19T02:53:33;20.60;99.90
24408;DHT22;12542;50.924;4.516;2022-07-19T02:56:01;20.50;99.90
24408;DHT22;12542;50.924;4.516;2022-07-19T02:58:29;20.40;99.90
24408;DHT22;12542;50.924;4.516;2022-07-19T03:00:54;20.30;99.90
24408;DHT22;12542;50.924;4.516;2022-07-19T03:03:20;20.30;99.90
24408;DHT22;12542;50.924;4.516;2022-07-19T03:06:04;20.30;99.90
24408;DHT22;12542;50.924;4.516;2022-07-19T03:08:30;20.30;99.90
24408;DHT22;12542;50.924;4.516;2022-07-19T03:10:57;20.20;99.90
24408;DHT22;12542;50.924;4.516;2022-07-19T03:13:25;20.20;99.90
24408;DHT22;12542;50.924;4.516;2022-07-19T03:15:57;20.10;99.90
24408;DHT22;12542;50.924;4.516;2022-07-19T03:18:22;20.20;99.90
24408;DHT22;12542;50.924;4.516;2022-07-19T03:20:48;20.10;99.90
24408;DHT22;12542;50.924;4.516;2022-07-19T03:23:13;20.10;99.90
24408;DHT22;12542;50.924;4.516;2022-07-19T03:25:41;20.00;99.90
24408;DHT22;12542;50.924;4.516;2022-07-19T03:28:07;19.90;99.90
24408;DHT22;12542;50.924;4.516;2022-07-19T03:30:33;19.90;99.90
24408;DHT22;12542;50.924;4.516;2022-07-19T03:33:02;20.00;99.90
24408;DHT22;12542;50.924;4.516;2022-07-19T03:35:27;20.10;99.90
24408;DHT22;12542;50.924;4.516;2022-07-19T03:37:53;20.10;99.90
24408;DHT22;12542;50.924;4.516;2022-07-19T03:40:19;20.00;99.90
24408;DHT22;12542;50.924;4.516;2022-07-19T03:42:47;20.00;99.90
24408;DHT22;12542;50.924;4.516;2022-07-19T03:45:17;20.00;99.90
24408;DHT22;12542;50.924;4.516;2022-07-19T03:47:46;20.00;99.90
24408;DHT22;12542;50.924;4.516;2022-07-19T03:50:11;20.00;99.90
24408;DHT22;12542;50.924;4.516;2022-07-19T03:52:39;20.20;99.90
24408;DHT22;12542;50.924;4.516;2022-07-19T03:55:05;20.30;99.90
24408;DHT22;12542;50.924;4.516;2022-07-19T03:57:30;20.10;99.90
24408;DHT22;12542;50.924;4.516;2022-07-19T03:59:56;20.10;99.90
24408;DHT22;12542;50.924;4.516;2022-07-19T04:02:24;19.90;99.90
24408;DHT22;12542;50.924;4.516;2022-07-19T04:04:50;19.90;99.90
24408;DHT22;12542;50.924;4.516;2022-07-19T04:07:18;20.00;99.90
24408;DHT22;12542;50.924;4.516;2022-07-19T04:09:46;19.90;99.90
24408;DHT22;12542;50.924;4.516;2022-07-19T04:12:16;20.00;99.90
24408;DHT22;12542;50.924;4.516;2022-07-19T04:14:42;20.00;99.90
24408;DHT22;12542;50.924;4.516;2022-07-19T04:17:07;20.00;99.90
24408;DHT22;12542;50.924;4.516;2022-07-19T04:19:33;20.10;99.90
24408;DHT22;12542;50.924;4.516;2022-07-19T04:21:58;20.20;99.90
24408;DHT22;12542;50.924;4.516;2022-07-19T04:24:24;20.20;99.90
24408;DHT22;12542;50.924;4.516;2022-07-19T04:26:52;20.30;99.90
24408;DHT22;12542;50.924;4.516;2022-07-19T04:29:17;20.40;99.90
24408;DHT22;12542;50.924;4.516;2022-07-19T04:31:43;20.70;99.90
24408;DHT22;12542;50.924;4.516;2022-07-19T04:34:13;21.10;99.90
24408;DHT22;12542;50.924;4.516;2022-07-19T04:36:39;21.60;99.90
24408;DHT22;12542;50.924;4.516;2022-07-19T04:39:04;21.70;99.90
24408;DHT22;12542;50.924;4.516;2022-07-19T04:41:30;22.00;99.90
24408;DHT22;12542;50.924;4.516;2022-07-19T04:43:58;22.60;99.90
24408;DHT22;12542;50.924;4.516;2022-07-19T04:46:23;23.10;99.90
24408;DHT22;12542;50.924;4.516;2022-07-19T04:48:49;23.60;99.90
24408;DHT22;12542;50.924;4.516;2022-07-19T04:51:15;24.20;99.90
24408;DHT22;12542;50.924;4.516;2022-07-19T04:53:41;25.10;99.70
24408;DHT22;12542;50.924;4.516;2022-07-19T04:56:06;25.70;98.80
24408;DHT22;12542;50.924;4.516;2022-07-19T04:58:32;26.40;97.30
24408;DHT22;12542;50.924;4.516;2022-07-19T05:00:58;26.80;95.80
24408;DHT22;12542;50.924;4.516;2022-07-19T05:03:24;27.30;94.30
24408;DHT22;12542;50.924;4.516;2022-07-19T05:05:49;27.70;93.60
24408;DHT22;12542;50.924;4.516;2022-07-19T05:08:15;27.90;93.30
24408;DHT22;12542;50.924;4.516;2022-07-19T05:10:40;28.20;92.20
24408;DHT22;12542;50.924;4.516;2022-07-19T05:13:06;28.60;91.50
24408;DHT22;12542;50.924;4.516;2022-07-19T05:15:34;28.80;90.40
24408;DHT22;12542;50.924;4.516;2022-07-19T05:18:05;29.60;89.10
24408;DHT22;12542;50.924;4.516;2022-07-19T05:20:30;30.40;87.70
24408;DHT22;12542;50.924;4.516;2022-07-19T05:22:59;31.00;84.10
24408;DHT22;12542;50.924;4.516;2022-07-19T05:25:24;31.70;80.80
24408;DHT22;12542;50.924;4.516;2022-07-19T05:27:50;31.80;77.90
24408;DHT22;12542;50.924;4.516;2022-07-19T05:30:16;32.10;76.60
24408;DHT22;12542;50.924;4.516;2022-07-19T05:32:42;32.70;76.10
24408;DHT22;12542;50.924;4.516;2022-07-19T05:35:09;33.40;74.30
24408;DHT22;12542;50.924;4.516;2022-07-19T05:37:34;33.90;72.70
24408;DHT22;12542;50.924;4.516;2022-07-19T05:40:00;34.40;70.30
24408;DHT22;12542;50.924;4.516;2022-07-19T05:42:26;34.80;69.60
24408;DHT22;12542;50.924;4.516;2022-07-19T05:44:51;34.80;69.00
24408;DHT22;12542;50.924;4.516;2022-07-19T05:47:17;35.30;67.40
24408;DHT22;12542;50.924;4.516;2022-07-19T05:49:45;35.40;67.50
24408;DHT22;12542;50.924;4.516;2022-07-19T05:52:14;35.60;66.40
24408;DHT22;12542;50.924;4.516;2022-07-19T05:54:39;35.90;65.00
24408;DHT22;12542;50.924;4.516;2022-07-19T05:57:05;36.10;65.50
24408;DHT22;12542;50.924;4.516;2022-07-19T05:59:31;36.40;64.40
24408;DHT22;12542;50.924;4.516;2022-07-19T06:01:58;36.50;63.40
24408;DHT22;12542;50.924;4.516;2022-07-19T06:04:24;36.90;63.20
24408;DHT22;12542;50.924;4.516;2022-07-19T06:06:49;37.00;62.10
24408;DHT22;12542;50.924;4.516;2022-07-19T06:09:18;37.20;61.10
24408;DHT22;12542;50.924;4.516;2022-07-19T06:11:45;37.30;61.40
24408;DHT22;12542;50.924;4.516;2022-07-19T06:14:11;37.40;61.20
24408;DHT22;12542;50.924;4.516;2022-07-19T06:16:38;37.40;60.10
24408;DHT22;12542;50.924;4.516;2022-07-19T06:19:07;37.60;60.10
24408;DHT22;12542;50.924;4.516;2022-07-19T06:21:33;37.60;59.30
24408;DHT22;12542;50.924;4.516;2022-07-19T06:23:59;37.20;59.20
24408;DHT22;12542;50.924;4.516;2022-07-19T06:26:25;37.40;59.80
24408;DHT22;12542;50.924;4.516;2022-07-19T06:28:54;37.30;59.50
24408;DHT22;12542;50.924;4.516;2022-07-19T06:31:23;37.30;59.40
24408;DHT22;12542;50.924;4.516;2022-07-19T06:33:52;37.30;58.90
24408;DHT22;12542;50.924;4.516;2022-07-19T06:36:18;37.30;59.20
24408;DHT22;12542;50.924;4.516;2022-07-19T06:38:44;36.90;59.00
24408;DHT22;12542;50.924;4.516;2022-07-19T06:41:13;36.80;58.40
24408;DHT22;12542;50.924;4.516;2022-07-19T06:43:40;36.70;59.30
24408;DHT22;12542;50.924;4.516;2022-07-19T06:46:06;36.40;58.90
24408;DHT22;12542;50.924;4.516;2022-07-19T06:48:32;36.40;59.70
24408;DHT22;12542;50.924;4.516;2022-07-19T06:50:57;36.30;59.20
24408;DHT22;12542;50.924;4.516;2022-07-19T06:53:23;36.10;59.60
24408;DHT22;12542;50.924;4.516;2022-07-19T06:55:51;36.40;59.40
24408;DHT22;12542;50.924;4.516;2022-07-19T06:58:19;36.40;59.40
24408;DHT22;12542;50.924;4.516;2022-07-19T07:00:46;36.60;59.00
24408;DHT22;12542;50.924;4.516;2022-07-19T07:03:14;36.90;59.20
24408;DHT22;12542;50.924;4.516;2022-07-19T07:05:40;36.70;55.00
24408;DHT22;12542;50.924;4.516;2022-07-19T07:08:08;36.90;57.00
24408;DHT22;12542;50.924;4.516;2022-07-19T07:10:34;36.90;56.40
24408;DHT22;12542;50.924;4.516;2022-07-19T07:13:03;36.00;53.20
24408;DHT22;12542;50.924;4.516;2022-07-19T07:15:31;34.70;53.20
24408;DHT22;12542;50.924;4.516;2022-07-19T07:17:57;34.20;54.70
24408;DHT22;12542;50.924;4.516;2022-07-19T07:20:23;33.90;53.60
24408;DHT22;12542;50.924;4.516;2022-07-19T07:22:51;33.20;55.80
24408;DHT22;12542;50.924;4.516;2022-07-19T07:25:17;32.90;56.30
24408;DHT22;12542;50.924;4.516;2022-07-19T07:27:43;33.40;56.60
24408;DHT22;12542;50.924;4.516;2022-07-19T07:30:09;33.90;56.10
24408;DHT22;12542;50.924;4.516;2022-07-19T07:32:35;34.30;55.40
24408;DHT22;12542;50.924;4.516;2022-07-19T07:35:01;34.50;54.70
24408;DHT22;12542;50.924;4.516;2022-07-19T07:37:27;34.80;54.20
24408;DHT22;12542;50.924;4.516;2022-07-19T07:39:53;34.70;54.60
24408;DHT22;12542;50.924;4.516;2022-07-19T07:42:21;34.80;54.30
24408;DHT22;12542;50.924;4.516;2022-07-19T07:44:47;34.40;53.60
24408;DHT22;12542;50.924;4.516;2022-07-19T07:47:13;33.60;54.50
24408;DHT22;12542;50.924;4.516;2022-07-19T07:49:41;33.00;54.80
24408;DHT22;12542;50.924;4.516;2022-07-19T07:52:07;33.40;56.50
24408;DHT22;12542;50.924;4.516;2022-07-19T07:54:34;33.40;57.10
24408;DHT22;12542;50.924;4.516;2022-07-19T07:57:02;33.90;56.40
24408;DHT22;12542;50.924;4.516;2022-07-19T07:59:28;33.70;56.30
24408;DHT22;12542;50.924;4.516;2022-07-19T08:01:54;34.00;56.10
24408;DHT22;12542;50.924;4.516;2022-07-19T08:04:19;34.10;55.80
24408;DHT22;12542;50.924;4.516;2022-07-19T08:06:45;33.80;56.70
24408;DHT22;12542;50.924;4.516;2022-07-19T08:09:10;33.80;55.00
24408;DHT22;12542;50.924;4.516;2022-07-19T08:11:39;33.80;55.80
24408;DHT22;12542;50.924;4.516;2022-07-19T08:14:07;33.50;55.70
24408;DHT22;12542;50.924;4.516;2022-07-19T08:16:32;33.70;57.10
24408;DHT22;12542;50.924;4.516;2022-07-19T08:18:58;33.70;55.90
24408;DHT22;12542;50.924;4.516;2022-07-19T08:21:27;33.60;56.70
24408;DHT22;12542;50.924;4.516;2022-07-19T08:23:53;33.80;56.60
24408;DHT22;12542;50.924;4.516;2022-07-19T08:26:21;33.80;56.90
24408;DHT22;12542;50.924;4.516;2022-07-19T08:28:46;33.80;56.90
24408;DHT22;12542;50.924;4.516;2022-07-19T08:31:14;34.20;56.20
24408;DHT22;12542;50.924;4.516;2022-07-19T08:33:40;34.50;56.10
24408;DHT22;12542;50.924;4.516;2022-07-19T08:36:07;34.80;57.20
24408;DHT22;12542;50.924;4.516;2022-07-19T08:38:38;35.20;55.80
24408;DHT22;12542;50.924;4.516;2022-07-19T08:41:04;35.40;55.60
24408;DHT22;12542;50.924;4.516;2022-07-19T08:43:30;35.60;55.20
24408;DHT22;12542;50.924;4.516;2022-07-19T08:46:03;36.20;55.20
24408;DHT22;12542;50.924;4.516;2022-07-19T08:48:36;36.40;53.80
24408;DHT22;12542;50.924;4.516;2022-07-19T08:51:07;36.50;53.50
24408;DHT22;12542;50.924;4.516;2022-07-19T08:53:35;35.90;53.30
24408;DHT22;12542;50.924;4.516;2022-07-19T08:56:06;36.20;54.10
24408;DHT22;12542;50.924;4.516;2022-07-19T08:58:51;36.30;51.90
24408;DHT22;12542;50.924;4.516;2022-07-19T09:01:20;36.00;52.20
24408;DHT22;12542;50.924;4.516;2022-07-19T09:06:45;36.30;51.90
24408;DHT22;12542;50.924;4.516;2022-07-19T09:09:11;36.30;51.30
24408;DHT22;12542;50.924;4.516;2022-07-19T09:11:39;36.20;50.80
24408;DHT22;12542;50.924;4.516;2022-07-19T09:14:17;36.20;51.30
24408;DHT22;12542;50.924;4.516;2022-07-19T09:19:19;36.40;50.20
24408;DHT22;12542;50.924;4.516;2022-07-19T09:21:53;36.00;50.90
24408;DHT22;12542;50.924;4.516;2022-07-19T09:24:20;36.20;49.60
24408;DHT22;12542;50.924;4.516;2022-07-19T09:27:05;36.20;51.00
24408;DHT22;12542;50.924;4.516;2022-07-19T09:29:31;36.10;51.10
24408;DHT22;12542;50.924;4.516;2022-07-19T09:32:17;36.40;50.80
24408;DHT22;12542;50.924;4.516;2022-07-19T09:34:59;36.20;49.90
24408;DHT22;12542;50.924;4.516;2022-07-19T09:37:35;36.30;50.80
24408;DHT22;12542;50.924;4.516;2022-07-19T09:40:07;36.00;50.30
24408;DHT22;12542;50.924;4.516;2022-07-19T09:42:38;36.30;49.80
24408;DHT22;12542;50.924;4.516;2022-07-19T09:45:06;36.50;49.30
24408;DHT22;12542;50.924;4.516;2022-07-19T09:47:34;37.00;49.50
24408;DHT22;12542;50.924;4.516;2022-07-19T09:50:02;37.80;49.00
24408;DHT22;12542;50.924;4.516;2022-07-19T09:52:28;37.60;46.90
24408;DHT22;12542;50.924;4.516;2022-07-19T09:55:03;37.70;48.40
24408;DHT22;12542;50.924;4.516;2022-07-19T09:57:34;38.00;46.40
24408;DHT22;12542;50.924;4.516;2022-07-19T10:00:04;38.20;46.10
24408;DHT22;12542;50.924;4.516;2022-07-19T10:02:35;37.70;46.60
24408;DHT22;12542;50.924;4.516;2022-07-19T10:05:03;37.50;47.00
24408;DHT22;12542;50.924;4.516;2022-07-19T10:07:33;37.50;47.20
24408;DHT22;12542;50.924;4.516;2022-07-19T10:10:11;37.80;47.00
24408;DHT22;12542;50.924;4.516;2022-07-19T10:12:42;38.00;45.70
24408;DHT22;12542;50.924;4.516;2022-07-19T10:15:10;38.00;45.70
24408;DHT22;12542;50.924;4.516;2022-07-19T10:18:18;37.90;45.20
24408;DHT22;12542;50.924;4.516;2022-07-19T10:20:49;38.30;46.00
24408;DHT22;12542;50.924;4.516;2022-07-19T10:23:15;38.70;45.00
24408;DHT22;12542;50.924;4.516;2022-07-19T10:30:53;37.90;44.80
24408;DHT22;12542;50.924;4.516;2022-07-19T10:33:35;38.30;43.50
24408;DHT22;12542;50.924;4.516;2022-07-19T10:44:32;38.60;42.60
24408;DHT22;12542;50.924;4.516;2022-07-19T10:46:57;38.80;42.00
24408;DHT22;12542;50.924;4.516;2022-07-19T10:49:42;39.00;41.70
24408;DHT22;12542;50.924;4.516;2022-07-19T11:00:31;38.70;42.40
24408;DHT22;12542;50.924;4.516;2022-07-19T11:03:33;38.40;41.70
24408;DHT22;12542;50.924;4.516;2022-07-19T11:06:02;38.70;41.50
24408;DHT22;12542;50.924;4.516;2022-07-19T11:08:37;38.60;41.20
24408;DHT22;12542;50.924;4.516;2022-07-19T11:13:33;39.20;40.60
24408;DHT22;12542;50.924;4.516;2022-07-19T11:15:59;39.10;40.50
24408;DHT22;12542;50.924;4.516;2022-07-19T11:18:32;38.80;40.20
24408;DHT22;12542;50.924;4.516;2022-07-19T11:21:00;38.60;40.50
24408;DHT22;12542;50.924;4.516;2022-07-19T11:23:34;38.60;40.50
24408;DHT22;12542;50.924;4.516;2022-07-19T11:26:19;38.70;38.90
24408;DHT22;12542;50.924;4.516;2022-07-19T11:28:49;38.60;38.60
24408;DHT22;12542;50.924;4.516;2022-07-19T11:31:19;38.60;39.20
24408;DHT22;12542;50.924;4.516;2022-07-19T11:33:47;38.60;39.50
24408;DHT22;12542;50.924;4.516;2022-07-19T11:36:14;38.30;38.80
24408;DHT22;12542;50.924;4.516;2022-07-19T11:41:14;38.50;39.00
24408;DHT22;12542;50.924;4.516;2022-07-19T11:43:41;38.30;38.60
24408;DHT22;12542;50.924;4.516;2022-07-19T11:46:07;38.10;39.20
24408;DHT22;12542;50.924;4.516;2022-07-19T11:48:35;38.20;39.70
24408;DHT22;12542;50.924;4.516;2022-07-19T11:51:10;38.30;38.40
24408;DHT22;12542;50.924;4.516;2022-07-19T11:53:39;38.40;39.00
24408;DHT22;12542;50.924;4.516;2022-07-19T11:56:18;38.70;40.30
24408;DHT22;12542;50.924;4.516;2022-07-19T11:58:44;38.90;39.70
24408;DHT22;12542;50.924;4.516;2022-07-19T12:01:10;38.70;39.70
24408;DHT22;12542;50.924;4.516;2022-07-19T12:03:53;38.30;39.90
24408;DHT22;12542;50.924;4.516;2022-07-19T12:06:19;38.10;39.80
24408;DHT22;12542;50.924;4.516;2022-07-19T12:08:44;38.20;39.10
24408;DHT22;12542;50.924;4.516;2022-07-19T12:11:23;38.10;39.10
24408;DHT22;12542;50.924;4.516;2022-07-19T12:13:55;38.50;40.80
24408;DHT22;12542;50.924;4.516;2022-07-19T12:16:23;38.70;39.00
24408;DHT22;12542;50.924;4.516;2022-07-19T12:18:57;38.80;38.80
24408;DHT22;12542;50.924;4.516;2022-07-19T12:21:27;39.00;38.90
24408;DHT22;12542;50.924;4.516;2022-07-19T12:24:15;39.10;39.00
24408;DHT22;12542;50.924;4.516;2022-07-19T12:26:54;39.40;39.80
24408;DHT22;12542;50.924;4.516;2022-07-19T12:29:46;39.20;40.00
24408;DHT22;12542;50.924;4.516;2022-07-19T12:32:30;39.50;39.20
24408;DHT22;12542;50.924;4.516;2022-07-19T12:35:07;39.00;38.50
24408;DHT22;12542;50.924;4.516;2022-07-19T12:37:44;38.90;39.50
24408;DHT22;12542;50.924;4.516;2022-07-19T12:40:17;39.00;38.70
24408;DHT22;12542;50.924;4.516;2022-07-19T12:45:15;39.00;39.60
24408;DHT22;12542;50.924;4.516;2022-07-19T12:47:44;38.80;38.90
24408;DHT22;12542;50.924;4.516;2022-07-19T12:50:20;38.80;38.40
24408;DHT22;12542;50.924;4.516;2022-07-19T12:52:46;38.90;39.10
24408;DHT22;12542;50.924;4.516;2022-07-19T12:55:15;39.10;38.90
24408;DHT22;12542;50.924;4.516;2022-07-19T12:57:40;39.00;38.40
24408;DHT22;12542;50.924;4.516;2022-07-19T13:00:09;39.00;38.00
24408;DHT22;12542;50.924;4.516;2022-07-19T13:02:35;39.10;39.00
24408;DHT22;12542;50.924;4.516;2022-07-19T13:05:01;38.70;37.80
24408;DHT22;12542;50.924;4.516;2022-07-19T13:07:26;38.80;38.60
24408;DHT22;12542;50.924;4.516;2022-07-19T13:09:52;38.70;38.00
24408;DHT22;12542;50.924;4.516;2022-07-19T13:12:18;38.60;38.00
24408;DHT22;12542;50.924;4.516;2022-07-19T13:14:44;39.10;39.90
24408;DHT22;12542;50.924;4.516;2022-07-19T13:17:09;39.50;38.40
24408;DHT22;12542;50.924;4.516;2022-07-19T13:19:38;39.40;38.20
24408;DHT22;12542;50.924;4.516;2022-07-19T13:22:04;39.20;37.10
24408;DHT22;12542;50.924;4.516;2022-07-19T13:24:33;39.10;37.40
24408;DHT22;12542;50.924;4.516;2022-07-19T13:26:59;38.80;37.40
24408;DHT22;12542;50.924;4.516;2022-07-19T13:29:25;38.50;36.80
24408;DHT22;12542;50.924;4.516;2022-07-19T13:31:51;38.60;37.10
24408;DHT22;12542;50.924;4.516;2022-07-19T13:34:19;38.60;36.90
24408;DHT22;12542;50.924;4.516;2022-07-19T13:36:45;38.80;36.90
24408;DHT22;12542;50.924;4.516;2022-07-19T13:39:11;39.10;37.00
24408;DHT22;12542;50.924;4.516;2022-07-19T13:41:41;39.30;37.40
24408;DHT22;12542;50.924;4.516;2022-07-19T13:44:09;39.50;36.60
24408;DHT22;12542;50.924;4.516;2022-07-19T13:46:35;39.40;35.80
24408;DHT22;12542;50.924;4.516;2022-07-19T13:49:06;39.70;35.70
24408;DHT22;12542;50.924;4.516;2022-07-19T13:51:32;39.90;34.50
24408;DHT22;12542;50.924;4.516;2022-07-19T13:53:57;39.90;34.10
24408;DHT22;12542;50.924;4.516;2022-07-19T13:56:23;39.70;34.70
24408;DHT22;12542;50.924;4.516;2022-07-19T13:58:49;39.30;33.40
24408;DHT22;12542;50.924;4.516;2022-07-19T14:01:15;39.10;34.20
24408;DHT22;12542;50.924;4.516;2022-07-19T14:03:41;38.90;33.80
24408;DHT22;12542;50.924;4.516;2022-07-19T14:06:07;38.80;34.40
24408;DHT22;12542;50.924;4.516;2022-07-19T14:08:33;38.70;33.90
24408;DHT22;12542;50.924;4.516;2022-07-19T14:10:59;38.90;33.40
24408;DHT22;12542;50.924;4.516;2022-07-19T14:13:27;39.00;33.10
24408;DHT22;12542;50.924;4.516;2022-07-19T14:15:53;39.00;33.40
24408;DHT22;12542;50.924;4.516;2022-07-19T14:18:21;39.20;33.80
24408;DHT22;12542;50.924;4.516;2022-07-19T14:20:47;39.40;34.10
24408;DHT22;12542;50.924;4.516;2022-07-19T14:23:16;39.50;33.40
24408;DHT22;12542;50.924;4.516;2022-07-19T14:25:42;39.50;31.60
24408;DHT22;12542;50.924;4.516;2022-07-19T14:28:07;39.20;32.00
24408;DHT22;12542;50.924;4.516;2022-07-19T14:30:33;39.10;33.00
24408;DHT22;12542;50.924;4.516;2022-07-19T14:32:59;39.20;33.10
24408;DHT22;12542;50.924;4.516;2022-07-19T14:35:25;39.50;32.20
24408;DHT22;12542;50.924;4.516;2022-07-19T14:37:51;39.60;32.80
24408;DHT22;12542;50.924;4.516;2022-07-19T14:40:17;39.30;32.00
24408;DHT22;12542;50.924;4.516;2022-07-19T14:42:45;39.30;32.10
24408;DHT22;12542;50.924;4.516;2022-07-19T14:45:11;39.30;32.50
24408;DHT22;12542;50.924;4.516;2022-07-19T14:47:37;39.20;31.10
24408;DHT22;12542;50.924;4.516;2022-07-19T14:50:05;38.90;31.30
24408;DHT22;12542;50.924;4.516;2022-07-19T14:52:31;39.20;30.80
24408;DHT22;12542;50.924;4.516;2022-07-19T14:54:57;39.30;31.40
24408;DHT22;12542;50.924;4.516;2022-07-19T14:57:22;39.30;30.50
24408;DHT22;12542;50.924;4.516;2022-07-19T14:59:48;39.30;31.60
24408;DHT22;12542;50.924;4.516;2022-07-19T15:02:14;39.30;30.50
24408;DHT22;12542;50.924;4.516;2022-07-19T15:04:40;39.30;30.60
24408;DHT22;12542;50.924;4.516;2022-07-19T15:07:06;39.40;30.40
24408;DHT22;12542;50.924;4.516;2022-07-19T15:09:33;39.50;31.30
24408;DHT22;12542;50.924;4.516;2022-07-19T15:12:00;39.50;30.50
24408;DHT22;12542;50.924;4.516;2022-07-19T15:14:27;39.40;30.10
24408;DHT22;12542;50.924;4.516;2022-07-19T15:17:00;39.30;30.50
24408;DHT22;12542;50.924;4.516;2022-07-19T15:19:26;39.50;30.60
24408;DHT22;12542;50.924;4.516;2022-07-19T15:21:52;39.30;30.00
24408;DHT22;12542;50.924;4.516;2022-07-19T15:24:18;38.90;30.50
24408;DHT22;12542;50.924;4.516;2022-07-19T15:26:44;38.80;29.80
24408;DHT22;12542;50.924;4.516;2022-07-19T15:29:10;38.80;30.00
24408;DHT22;12542;50.924;4.516;2022-07-19T15:31:36;38.60;30.70
24408;DHT22;12542;50.924;4.516;2022-07-19T15:34:01;38.80;30.90
24408;DHT22;12542;50.924;4.516;2022-07-19T15:36:27;38.90;30.50
24408;DHT22;12542;50.924;4.516;2022-07-19T15:38:53;38.80;30.80
24408;DHT22;12542;50.924;4.516;2022-07-19T15:41:20;38.90;30.90
24408;DHT22;12542;50.924;4.516;2022-07-19T15:43:46;38.90;31.70
24408;DHT22;12542;50.924;4.516;2022-07-19T15:46:14;39.20;31.10
24408;DHT22;12542;50.924;4.516;2022-07-19T15:48:40;38.90;30.40
24408;DHT22;12542;50.924;4.516;2022-07-19T15:51:07;38.70;30.30
24408;DHT22;12542;50.924;4.516;2022-07-19T15:53:34;38.50;30.50
24408;DHT22;12542;50.924;4.516;2022-07-19T15:56:00;38.50;30.60
24408;DHT22;12542;50.924;4.516;2022-07-19T15:58:25;38.40;30.80
24408;DHT22;12542;50.924;4.516;2022-07-19T16:00:53;38.50;31.30
24408;DHT22;12542;50.924;4.516;2022-07-19T16:03:19;38.80;31.50
24408;DHT22;12542;50.924;4.516;2022-07-19T16:05:45;38.90;30.80
24408;DHT22;12542;50.924;4.516;2022-07-19T16:08:11;38.90;30.70
24408;DHT22;12542;50.924;4.516;2022-07-19T16:10:38;38.70;30.80